createdAt,value
2022-11-19T00:01:20.804Z,95419.06
2022-11-19T00:03:52.329Z,95414.91
2022-11-19T00:06:22.409Z,95403.75
2022-11-19T00:08:49.449Z,95418.09
2022-11-19T00:11:40.500Z,95428.13
2022-11-19T00:14:08.730Z,95422.94
2022-11-19T00:16:35.389Z,95412.88
2022-11-19T00:19:02.185Z,95421.41
2022-11-19T00:21:28.889Z,95411.41
2022-11-19T00:23:55.945Z,95420.53
2022-11-19T00:26:23.555Z,95413.75
2022-11-19T00:28:50.303Z,95425.47
2022-11-19T00:31:17.992Z,95423.41
2022-11-19T00:33:45.914Z,95431.72
2022-11-19T00:36:19.663Z,95419.56
2022-11-19T00:38:46.370Z,95416.19
2022-11-19T00:41:12.955Z,95444.44
2022-11-19T00:43:48.977Z,95448.25
2022-11-19T00:46:36.244Z,95424.53
2022-11-19T00:49:03.037Z,95446.66
2022-11-19T00:51:30.954Z,95422.19
2022-11-19T00:53:58.515Z,95390.59
2022-11-19T00:56:26.782Z,95434.81
2022-11-19T00:58:53.823Z,95408.56
2022-11-19T01:01:23.421Z,95422.50
2022-11-19T01:03:50.770Z,95432.28
2022-11-19T01:06:20.400Z,95440.69
2022-11-19T01:08:48.547Z,95402.91
2022-11-19T01:11:22.085Z,95450.78
2022-11-19T01:13:49.260Z,95412.13
2022-11-19T01:16:19.401Z,95448.84
2022-11-19T01:18:49.230Z,95452.50
2022-11-19T01:21:17.537Z,95442.38
2022-11-19T01:23:45.179Z,95444.97
2022-11-19T01:26:12.902Z,95431.56
2022-11-19T01:28:39.547Z,95429.03
2022-11-19T01:31:22.233Z,95461.38
2022-11-19T01:33:48.927Z,95447.72
2022-11-19T01:36:19.301Z,95423.78
2022-11-19T01:38:52.111Z,95468.00
2022-11-19T01:41:29.700Z,95426.81
2022-11-19T01:44:02.442Z,95457.78
2022-11-19T01:46:34.342Z,95469.53
2022-11-19T01:49:14.801Z,95462.41
2022-11-19T01:51:48.646Z,95438.28
2022-11-19T01:54:33.563Z,95475.16
2022-11-19T01:57:06.351Z,95473.56
2022-11-19T01:59:33.238Z,95463.31
2022-11-19T02:02:00.144Z,95443.63
2022-11-19T02:04:27.543Z,95466.66
2022-11-19T02:06:55.185Z,95449.88
2022-11-19T02:09:22.520Z,95453.50
2022-11-19T02:12:00.139Z,95479.31
2022-11-19T02:14:49.259Z,95440.63
2022-11-19T02:17:45.751Z,95483.56
2022-11-19T02:20:18.712Z,95466.78
2022-11-19T02:23:09.074Z,95447.34
2022-11-19T02:25:38.875Z,95480.72
2022-11-19T02:28:20.695Z,95474.66
2022-11-19T02:30:51.181Z,95478.50
2022-11-19T02:33:35.453Z,95452.53
2022-11-19T02:36:29.514Z,95484.50
2022-11-19T02:39:09.474Z,95481.34
2022-11-19T02:42:09.814Z,95480.91
2022-11-19T02:45:02.896Z,95502.88
2022-11-19T02:47:35.283Z,95497.56
2022-11-19T02:50:13.718Z,95475.13
2022-11-19T02:52:42.750Z,95496.97
2022-11-19T02:55:17.063Z,95497.69
2022-11-19T02:57:49.000Z,95508.13
2022-11-19T03:00:34.699Z,95488.00
2022-11-19T03:03:33.328Z,95506.78
2022-11-19T03:06:07.262Z,95521.03
2022-11-19T03:08:34.024Z,95508.97
2022-11-19T03:11:13.570Z,95518.81
2022-11-19T03:14:09.839Z,95509.25
2022-11-19T03:16:41.371Z,95499.38
2022-11-19T03:19:20.535Z,95512.88
2022-11-19T03:22:05.599Z,95510.06
2022-11-19T03:24:58.576Z,95529.06
2022-11-19T03:27:29.889Z,95531.47
2022-11-19T03:29:58.063Z,95538.56
2022-11-19T03:32:46.482Z,95546.81
2022-11-19T03:35:20.705Z,95511.81
2022-11-19T03:37:51.044Z,95544.63
2022-11-19T03:40:19.984Z,95540.56
2022-11-19T03:42:50.428Z,95514.53
2022-11-19T03:45:22.457Z,95551.16
2022-11-19T03:47:51.546Z,95557.34
2022-11-19T03:50:47.410Z,95534.19
2022-11-19T03:53:14.509Z,95563.38
2022-11-19T03:55:47.167Z,95569.69
2022-11-19T03:58:13.803Z,95548.50
2022-11-19T04:00:40.454Z,95545.91
2022-11-19T04:03:07.098Z,95556.75
2022-11-19T04:05:33.637Z,95538.50
2022-11-19T04:08:00.240Z,95574.72
2022-11-19T04:10:26.855Z,95550.66
2022-11-19T04:12:53.495Z,95535.47
2022-11-19T04:15:20.065Z,95554.41
2022-11-19T04:17:46.642Z,95556.22
2022-11-19T04:20:13.534Z,95555.22
2022-11-19T04:22:40.142Z,95547.50
2022-11-19T04:25:07.037Z,95555.28
2022-11-19T04:27:33.829Z,95565.41
2022-11-19T04:30:00.445Z,95560.56
2022-11-19T04:32:27.106Z,95550.72
2022-11-19T04:34:54.080Z,95548.41
2022-11-19T04:37:20.694Z,95564.13
2022-11-19T04:39:47.297Z,95584.50
2022-11-19T04:42:13.904Z,95589.16
2022-11-19T04:44:40.534Z,95590.19
2022-11-19T04:47:07.130Z,95544.22
2022-11-19T04:49:33.738Z,95550.41
2022-11-19T04:52:00.316Z,95577.50
2022-11-19T04:54:26.893Z,95571.16
2022-11-19T04:56:53.533Z,95590.50
2022-11-19T04:59:20.314Z,95598.03
2022-11-19T05:01:47.147Z,95591.84
2022-11-19T05:04:13.844Z,95577.94
2022-11-19T05:06:40.447Z,95597.06
2022-11-19T05:09:07.186Z,95581.59
2022-11-19T05:11:33.785Z,95604.88
2022-11-19T05:14:00.625Z,95590.44
2022-11-19T05:16:27.272Z,95609.25
2022-11-19T05:18:53.865Z,95579.88
2022-11-19T05:21:20.455Z,95613.19
2022-11-19T05:23:47.009Z,95608.28
2022-11-19T05:26:13.576Z,95603.38
2022-11-19T05:28:40.353Z,95558.97
2022-11-19T05:31:07.858Z,95602.91
2022-11-19T05:33:34.890Z,95550.44
2022-11-19T05:36:02.301Z,95581.16
2022-11-19T05:38:29.072Z,95597.66
2022-11-19T05:40:55.682Z,95604.94
2022-11-19T05:43:22.333Z,95589.44
2022-11-19T05:45:48.916Z,95586.88
2022-11-19T05:48:15.500Z,95609.41
2022-11-19T05:50:42.813Z,95573.94
2022-11-19T05:53:10.079Z,95575.72
2022-11-19T05:55:36.724Z,95593.84
2022-11-19T05:58:03.422Z,95620.75
2022-11-19T06:00:30.313Z,95618.66
2022-11-19T06:02:56.952Z,95624.13
2022-11-19T06:05:23.738Z,95624.66
2022-11-19T06:07:50.429Z,95623.34
2022-11-19T06:10:17.210Z,95632.44
2022-11-19T06:12:46.002Z,95643.03
2022-11-19T06:15:13.774Z,95608.13
2022-11-19T06:17:40.866Z,95632.22
2022-11-19T06:20:11.546Z,95635.56
2022-11-19T06:22:38.514Z,95658.34
2022-11-19T06:25:06.175Z,95647.47
2022-11-19T06:27:32.784Z,95649.31
2022-11-19T06:29:59.393Z,95623.69
2022-11-19T06:32:26.345Z,95636.06
2022-11-19T06:34:53.132Z,95637.66
2022-11-19T06:37:19.916Z,95644.09
2022-11-19T06:39:46.522Z,95628.84
2022-11-19T06:42:31.696Z,95636.84
2022-11-19T06:44:58.299Z,95636.09
2022-11-19T06:47:24.923Z,95653.72
2022-11-19T06:49:51.529Z,95671.28
2022-11-19T06:52:18.089Z,95642.84
2022-11-19T06:54:44.723Z,95654.00
2022-11-19T06:57:11.295Z,95666.66
2022-11-19T06:59:39.139Z,95667.97
2022-11-19T07:02:06.813Z,95679.09
2022-11-19T07:04:33.464Z,95654.25
2022-11-19T07:07:00.191Z,95675.19
2022-11-19T07:09:26.821Z,95648.03
2022-11-19T07:11:53.495Z,95686.59
2022-11-19T07:14:20.072Z,95658.38
2022-11-19T07:16:46.684Z,95653.22
2022-11-19T07:19:13.447Z,95695.41
2022-11-19T07:21:40.123Z,95715.06
2022-11-19T07:24:09.096Z,95708.06
2022-11-19T07:26:36.747Z,95710.66
2022-11-19T07:29:07.710Z,95698.50
2022-11-19T07:31:34.747Z,95706.25
2022-11-19T07:34:01.847Z,95712.22
2022-11-19T07:36:28.505Z,95692.03
2022-11-19T07:38:55.251Z,95707.03
2022-11-19T07:41:41.039Z,95710.13
2022-11-19T07:44:07.726Z,95692.25
2022-11-19T07:46:34.663Z,95699.25
2022-11-19T07:49:01.611Z,95720.75
2022-11-19T07:51:28.363Z,95693.06
2022-11-19T07:53:56.190Z,95719.94
2022-11-19T07:56:22.929Z,95710.38
2022-11-19T07:58:49.648Z,95739.09
2022-11-19T08:01:21.423Z,95701.03
2022-11-19T08:03:55.745Z,95729.03
2022-11-19T08:06:25.430Z,95730.59
2022-11-19T08:08:52.546Z,95686.81
2022-11-19T08:11:19.474Z,95710.38
2022-11-19T08:13:46.095Z,95735.44
2022-11-19T08:16:37.788Z,95746.84
2022-11-19T08:19:09.889Z,95727.94
2022-11-19T08:21:39.950Z,95747.91
2022-11-19T08:24:07.504Z,95737.31
2022-11-19T08:26:34.130Z,95704.41
2022-11-19T08:29:00.735Z,95708.31
2022-11-19T08:31:27.396Z,95732.91
2022-11-19T08:33:54.010Z,95704.41
2022-11-19T08:36:21.006Z,95726.13
2022-11-19T08:38:47.825Z,95727.19
2022-11-19T08:41:33.060Z,95751.50
2022-11-19T08:44:01.573Z,95741.97
2022-11-19T08:46:28.305Z,95745.09
2022-11-19T08:48:54.925Z,95743.78
2022-11-19T08:51:21.459Z,95749.75
2022-11-19T08:53:48.166Z,95750.75
2022-11-19T08:56:18.044Z,95743.53
2022-11-19T08:58:45.124Z,95731.38
2022-11-19T09:01:14.025Z,95748.44
2022-11-19T09:03:40.953Z,95751.81
2022-11-19T09:06:07.882Z,95752.56
2022-11-19T09:08:34.785Z,95749.72
2022-11-19T09:11:06.626Z,95740.66
2022-11-19T09:13:33.470Z,95749.75
2022-11-19T09:16:00.131Z,95750.22
2022-11-19T09:18:26.740Z,95765.47
2022-11-19T09:20:56.792Z,95758.50
2022-11-19T09:23:24.993Z,95721.72
2022-11-19T09:26:03.081Z,95754.84
2022-11-19T09:28:31.286Z,95756.38
2022-11-19T09:30:59.822Z,95768.31
2022-11-19T09:33:28.717Z,95768.06
2022-11-19T09:35:55.306Z,95774.31
2022-11-19T09:38:29.589Z,95738.81
2022-11-19T09:40:59.269Z,95744.19
2022-11-19T09:43:42.437Z,95758.19
2022-11-19T09:46:14.764Z,95741.13
2022-11-19T09:48:41.832Z,95757.25
2022-11-19T09:51:14.079Z,95720.25
2022-11-19T09:53:49.295Z,95754.69
2022-11-19T09:56:23.359Z,95759.59
2022-11-19T09:58:50.047Z,95760.88
2022-11-19T10:01:18.734Z,95755.72
2022-11-19T10:03:48.868Z,95734.75
2022-11-19T10:06:15.444Z,95769.69
2022-11-19T10:09:02.893Z,95769.16
2022-11-19T10:11:38.369Z,95761.88
2022-11-19T10:14:29.409Z,95765.75
2022-11-19T10:17:17.966Z,95762.69
2022-11-19T10:20:11.395Z,95732.38
2022-11-19T10:23:03.441Z,95747.41
2022-11-19T10:25:39.253Z,95774.34
2022-11-19T10:28:25.607Z,95738.34
2022-11-19T10:30:55.988Z,95771.22
2022-11-19T10:33:35.908Z,95770.94
2022-11-19T10:36:12.206Z,95711.69
2022-11-19T10:39:10.183Z,95769.13
2022-11-19T10:41:51.938Z,95767.59
2022-11-19T10:44:37.750Z,95762.94
2022-11-19T10:47:06.354Z,95744.03
2022-11-19T10:49:39.818Z,95738.28
2022-11-19T10:52:17.488Z,95726.81
2022-11-19T10:54:46.403Z,95750.88
2022-11-19T10:57:16.873Z,95749.09
2022-11-19T10:59:44.039Z,95749.16
2022-11-19T11:02:28.038Z,95743.25
2022-11-19T11:05:03.515Z,95759.28
2022-11-19T11:07:51.445Z,95762.31
2022-11-19T11:10:27.162Z,95748.91
2022-11-19T11:13:14.336Z,95738.81
2022-11-19T11:15:46.755Z,95742.97
2022-11-19T11:18:15.160Z,95713.94
2022-11-19T11:20:50.024Z,95713.72
2022-11-19T11:23:20.934Z,95748.09
2022-11-19T11:25:54.128Z,95719.59
2022-11-19T11:28:23.246Z,95745.19
2022-11-19T11:30:55.787Z,95749.41
2022-11-19T11:33:34.800Z,95745.81
2022-11-19T11:36:15.499Z,95708.72
2022-11-19T11:38:51.522Z,95732.31
2022-11-19T11:42:03.659Z,95717.03
2022-11-19T11:44:18.526Z,95728.56
2022-11-19T11:46:50.874Z,95696.56
2022-11-19T11:49:35.605Z,95736.47
2022-11-19T11:52:13.358Z,95731.31
2022-11-19T11:54:57.221Z,95727.78
2022-11-19T11:57:30.573Z,95740.50
2022-11-19T11:59:57.654Z,95718.78
2022-11-19T12:02:33.269Z,95740.53
2022-11-19T12:05:07.474Z,95737.84
2022-11-19T12:07:42.866Z,95738.41
2022-11-19T12:10:25.130Z,95739.25
2022-11-19T12:12:51.710Z,95731.34
2022-11-19T12:15:26.788Z,95732.75
2022-11-19T12:18:22.872Z,95728.13
2022-11-19T12:21:11.946Z,95722.38
2022-11-19T12:23:50.818Z,95727.56
2022-11-19T12:26:52.289Z,95721.63
2022-11-19T12:29:36.926Z,95729.16
2022-11-19T12:32:29.620Z,95718.78
2022-11-19T12:35:15.600Z,95722.94
2022-11-19T12:38:26.345Z,95689.31
2022-11-19T12:41:17.745Z,95716.47
2022-11-19T12:43:53.340Z,95716.00
2022-11-19T12:46:40.856Z,95716.47
2022-11-19T12:49:23.309Z,95721.94
2022-11-19T12:52:50.373Z,95713.13
2022-11-19T12:56:18.226Z,95722.72
2022-11-19T12:59:12.437Z,95715.75
2022-11-19T13:01:43.421Z,95688.88
2022-11-19T13:04:23.775Z,95687.09
2022-11-19T13:07:05.246Z,95698.66
2022-11-19T13:10:27.559Z,95710.81
2022-11-19T13:12:57.141Z,95653.38
2022-11-19T13:15:32.548Z,95661.91
2022-11-19T13:18:04.122Z,95684.72
2022-11-19T13:20:57.209Z,95695.81
2022-11-19T13:23:32.657Z,95703.88
2022-11-19T13:26:11.014Z,95692.72
2022-11-19T13:29:09.594Z,95671.25
2022-11-19T13:31:50.400Z,95688.03
2022-11-19T13:34:26.917Z,95692.44
2022-11-19T13:37:12.905Z,95663.94
2022-11-19T13:39:45.233Z,95696.31
2022-11-19T13:42:34.741Z,95668.41
2022-11-19T13:45:01.484Z,95657.03
2022-11-19T13:47:42.905Z,95690.38
2022-11-19T13:50:22.415Z,95693.00
2022-11-19T13:53:03.988Z,95687.59
2022-11-19T13:55:33.811Z,95692.78
2022-11-19T13:58:14.208Z,95665.59
2022-11-19T14:00:54.235Z,95660.91
2022-11-19T14:03:44.184Z,95700.75
2022-11-19T14:06:17.041Z,95699.22
2022-11-19T14:09:11.784Z,95698.19
2022-11-19T14:11:59.302Z,95645.19
2022-11-19T14:15:02.919Z,95690.66
2022-11-19T14:18:09.862Z,95663.47
2022-11-19T14:20:58.481Z,95694.56
2022-11-19T14:24:08.644Z,95703.88
2022-11-19T14:26:41.259Z,95703.38
2022-11-19T14:29:25.934Z,95693.78
2022-11-19T14:32:06.096Z,95684.47
2022-11-19T14:34:35.540Z,95689.88
2022-11-19T14:37:27.634Z,95699.94
2022-11-19T14:40:00.558Z,95687.31
2022-11-19T14:42:27.167Z,95670.25
2022-11-19T14:45:02.964Z,95697.91
2022-11-19T14:47:43.469Z,95695.59
2022-11-19T14:50:31.015Z,95710.09
2022-11-19T14:53:02.095Z,95681.91
2022-11-19T14:55:30.314Z,95707.78
2022-11-19T14:58:00.662Z,95707.03
2022-11-19T15:00:46.187Z,95695.63
2022-11-19T15:03:22.472Z,95698.97
2022-11-19T15:05:49.834Z,95676.00
2022-11-19T15:08:19.519Z,95698.47
2022-11-19T15:11:02.771Z,95704.72
2022-11-19T15:13:31.853Z,95708.84
2022-11-19T15:16:20.985Z,95708.06
2022-11-19T15:18:47.674Z,95709.59
2022-11-19T15:21:26.893Z,95708.84
2022-11-19T15:24:15.687Z,95695.63
2022-11-19T15:27:01.149Z,95704.19
2022-11-19T15:29:55.657Z,95707.78
2022-11-19T15:32:57.738Z,95709.38
2022-11-19T15:35:33.199Z,95675.47
2022-11-19T15:38:38.381Z,95697.19
2022-11-19T15:41:07.076Z,95704.97
2022-11-19T15:43:41.033Z,95677.75
2022-11-19T15:46:15.077Z,95700.81
2022-11-19T15:49:01.672Z,95700.03
2022-11-19T15:51:30.664Z,95694.63
2022-11-19T15:54:07.047Z,95698.47
2022-11-19T15:56:39.331Z,95663.81
2022-11-19T15:59:08.100Z,95696.41
2022-11-19T16:01:35.941Z,95672.84
2022-11-19T16:04:15.274Z,95668.19
2022-11-19T16:06:48.461Z,95703.41
2022-11-19T16:09:21.384Z,95680.09
2022-11-19T16:12:07.425Z,95693.59
2022-11-19T16:14:52.694Z,95676.25
2022-11-19T16:17:43.429Z,95701.84
2022-11-19T16:20:10.488Z,95708.59
2022-11-19T16:22:43.417Z,95713.75
2022-11-19T16:25:39.050Z,95708.81
2022-11-19T16:28:10.575Z,95723.34
2022-11-19T16:31:05.020Z,95710.66
2022-11-19T16:33:33.103Z,95716.63
2022-11-19T16:36:17.199Z,95722.53
2022-11-19T16:38:47.757Z,95726.94
2022-11-19T16:41:37.554Z,95731.63
2022-11-19T16:44:09.201Z,95704.44
2022-11-19T16:46:38.645Z,95705.47
2022-11-19T16:49:29.853Z,95732.66
2022-11-19T16:51:58.070Z,95730.06
2022-11-19T16:54:43.571Z,95745.88
2022-11-19T16:57:11.911Z,95751.81
2022-11-19T16:59:38.712Z,95717.66
2022-11-19T17:02:14.667Z,95756.50
2022-11-19T17:04:48.227Z,95753.63
2022-11-19T17:07:23.010Z,95758.28
2022-11-19T17:10:07.858Z,95726.19
2022-11-19T17:12:36.358Z,95725.69
2022-11-19T17:15:28.501Z,95774.88
2022-11-19T17:17:55.118Z,95771.50
2022-11-19T17:20:27.987Z,95785.22
2022-11-19T17:22:56.226Z,95772.03
2022-11-19T17:25:22.894Z,95777.19
2022-11-19T17:28:00.286Z,95741.72
2022-11-19T17:30:32.305Z,95732.69
2022-11-19T17:33:01.649Z,95765.28
2022-11-19T17:35:43.031Z,95771.22
2022-11-19T17:38:15.693Z,95766.03
2022-11-19T17:40:48.508Z,95770.47
2022-11-19T17:43:38.556Z,95743.78
2022-11-19T17:46:05.253Z,95739.66
2022-11-19T17:48:32.260Z,95762.44
2022-11-19T17:50:59.114Z,95761.13
2022-11-19T17:53:26.004Z,95763.97
2022-11-19T17:55:55.495Z,95763.47
2022-11-19T17:58:22.254Z,95748.94
2022-11-19T18:00:53.041Z,95751.28
2022-11-19T18:03:20.098Z,95749.75
2022-11-19T18:05:48.522Z,95772.00
2022-11-19T18:08:16.358Z,95764.22
2022-11-19T18:10:46.265Z,95732.88
2022-11-19T18:13:17.252Z,95755.69
2022-11-19T18:15:43.992Z,95759.81
2022-11-19T18:18:10.708Z,95733.16
2022-11-19T18:20:37.594Z,95756.22
2022-11-19T18:23:04.516Z,95761.38
2022-11-19T18:25:31.395Z,95789.09
2022-11-19T18:27:58.110Z,95791.44
2022-11-19T18:30:24.808Z,95769.66
2022-11-19T18:32:52.224Z,95758.00
2022-11-19T18:35:20.072Z,95790.88
2022-11-19T18:37:46.776Z,95763.66
2022-11-19T18:40:15.236Z,95752.50
2022-11-19T18:43:20.955Z,95788.75
2022-11-19T18:45:47.694Z,95775.81
2022-11-19T18:48:14.529Z,95764.91
2022-11-19T18:50:41.614Z,95786.66
2022-11-19T18:53:13.144Z,95786.13
2022-11-19T18:55:39.786Z,95795.47
2022-11-19T18:58:06.422Z,95794.69
2022-11-19T19:00:33.160Z,95780.41
2022-11-19T19:03:00.806Z,95783.50
2022-11-19T19:05:29.710Z,95801.91
2022-11-19T19:07:56.423Z,95799.00
2022-11-19T19:10:23.124Z,95806.25
2022-11-19T19:12:49.748Z,95780.34
2022-11-19T19:15:19.014Z,95763.75
2022-11-19T19:17:45.770Z,95766.34
2022-11-19T19:20:13.011Z,95789.38
2022-11-19T19:22:39.737Z,95798.72
2022-11-19T19:25:06.757Z,95793.03
2022-11-19T19:27:33.412Z,95719.97
2022-11-19T19:30:00.992Z,95778.72
2022-11-19T19:32:28.222Z,95788.28
2022-11-19T19:34:55.269Z,95785.66
2022-11-19T19:37:24.041Z,95767.25
2022-11-19T19:39:50.804Z,95765.44
2022-11-19T19:42:17.430Z,95768.28
2022-11-19T19:44:44.069Z,95763.09
2022-11-19T19:47:10.720Z,95800.06
2022-11-19T19:49:39.128Z,95785.22
2022-11-19T19:52:06.071Z,95819.41
2022-11-19T19:54:32.790Z,95816.06
2022-11-19T19:56:59.459Z,95811.94
2022-11-19T19:59:26.167Z,95792.47
2022-11-19T20:01:53.939Z,95815.31
2022-11-19T20:04:20.814Z,95812.13
2022-11-19T20:06:47.945Z,95786.94
2022-11-19T20:09:14.954Z,95763.38
2022-11-19T20:11:41.604Z,95703.56
2022-11-19T20:14:09.874Z,95802.88
2022-11-19T20:16:40.164Z,95768.13
2022-11-19T20:19:08.818Z,95804.44
2022-11-19T20:21:36.486Z,95789.69
2022-11-19T20:24:11.548Z,95796.19
2022-11-19T20:26:40.274Z,95798.31
2022-11-19T20:29:07.159Z,95799.59
2022-11-19T20:31:34.704Z,95781.72
2022-11-19T20:34:03.866Z,95810.47
2022-11-19T20:36:33.914Z,95800.38
2022-11-19T20:39:21.456Z,95799.84
2022-11-19T20:42:07.349Z,95801.69
2022-11-19T20:44:34.064Z,95766.44
2022-11-19T20:47:03.277Z,95784.88
2022-11-19T20:49:34.267Z,95812.84
2022-11-19T20:52:01.496Z,95797.34
2022-11-19T20:54:28.874Z,95807.69
2022-11-19T20:56:56.404Z,95802.50
2022-11-19T20:59:25.741Z,95788.75
2022-11-19T21:01:53.957Z,95797.03
2022-11-19T21:04:21.894Z,95800.44
2022-11-19T21:06:51.866Z,95768.06
2022-11-19T21:09:20.134Z,95799.72
2022-11-19T21:11:47.810Z,95804.13
2022-11-19T21:14:14.614Z,95795.31
2022-11-19T21:16:41.383Z,95787.84
2022-11-19T21:19:10.297Z,95796.13
2022-11-19T21:21:37.412Z,95781.84
2022-11-19T21:24:24.648Z,95779.81
2022-11-19T21:26:51.385Z,95789.66
2022-11-19T21:29:18.367Z,95782.69
2022-11-19T21:31:47.289Z,95793.28
2022-11-19T21:34:18.653Z,95765.09
2022-11-19T21:36:46.951Z,95778.59
2022-11-19T21:39:17.208Z,95774.19
2022-11-19T21:41:44.700Z,95785.84
2022-11-19T21:44:14.313Z,95782.72
2022-11-19T21:46:43.393Z,95783.19
2022-11-19T21:49:10.284Z,95749.22
2022-11-19T21:51:37.508Z,95782.16
2022-11-19T21:54:04.298Z,95779.59
2022-11-19T21:56:36.906Z,95732.69
2022-11-19T21:59:05.595Z,95734.50
2022-11-19T22:01:32.295Z,95768.47
2022-11-19T22:03:59.081Z,95768.25
2022-11-19T22:06:25.702Z,95749.59
2022-11-19T22:08:52.819Z,95781.69
2022-11-19T22:11:39.689Z,95737.69
2022-11-19T22:14:08.478Z,95782.78
2022-11-19T22:16:40.320Z,95767.50
2022-11-19T22:19:07.162Z,95740.81
2022-11-19T22:21:34.311Z,95755.78
2022-11-19T22:24:01.007Z,95763.59
2022-11-19T22:26:27.990Z,95759.22
2022-11-19T22:28:55.333Z,95728.41
2022-11-19T22:31:23.183Z,95774.00
2022-11-19T22:33:52.041Z,95777.09
2022-11-19T22:36:20.437Z,95769.84
2022-11-19T22:38:47.216Z,95758.19
2022-11-19T22:41:16.579Z,95750.88
2022-11-19T22:43:44.194Z,95766.47
2022-11-19T22:46:12.755Z,95775.53
2022-11-19T22:48:39.816Z,95737.19
2022-11-19T22:51:19.107Z,95749.13
2022-11-19T22:53:46.094Z,95775.25
2022-11-19T22:56:16.210Z,95777.84
2022-11-19T22:58:43.195Z,95741.06
2022-11-19T23:01:25.655Z,95779.41
2022-11-19T23:03:52.956Z,95783.53
2022-11-19T23:06:20.462Z,95776.81
2022-11-19T23:08:47.468Z,95744.94
2022-11-19T23:11:16.656Z,95777.53
2022-11-19T23:13:44.743Z,95771.91
2022-11-19T23:16:15.582Z,95767.47
2022-11-19T23:18:47.893Z,95770.34
2022-11-19T23:21:18.034Z,95771.13
2022-11-19T23:23:45.521Z,95752.47
2022-11-19T23:26:14.913Z,95763.38
2022-11-19T23:28:42.329Z,95771.16
2022-11-19T23:31:13.914Z,95770.91
2022-11-19T23:33:41.170Z,95772.72
2022-11-19T23:36:11.972Z,95734.63
2022-11-19T23:38:39.501Z,95759.50
2022-11-19T23:41:08.242Z,95762.13
2022-11-19T23:43:35.715Z,95704.09
2022-11-19T23:46:09.879Z,95754.34
2022-11-19T23:48:38.309Z,95726.88
2022-11-19T23:51:08.045Z,95763.41
2022-11-19T23:53:34.767Z,95742.44
2022-11-19T23:56:02.009Z,95732.84
2022-11-19T23:58:29.101Z,95695.81
